createdAt,value
2023-04-10T00:02:02.467Z,97264.53
2023-04-10T00:04:29.430Z,97250.25
2023-04-10T00:06:55.968Z,97246.28
2023-04-10T00:09:22.466Z,97238.44
2023-04-10T00:11:49.025Z,97217.81
2023-04-10T00:14:15.457Z,97181.03
2023-04-10T00:16:42.022Z,97145.66
2023-04-10T00:19:08.957Z,97106.28
2023-04-10T00:21:35.436Z,97080.34
2023-04-10T00:24:02.011Z,97069.47
2023-04-10T00:26:29.545Z,97071.47
2023-04-10T00:28:56.337Z,97062.56
2023-04-10T00:31:23.159Z,97050.72
2023-04-10T00:33:49.881Z,97024.56
2023-04-10T00:36:16.434Z,96998.03
2023-04-10T00:38:42.938Z,96952.75
2023-04-10T00:41:09.794Z,96901.88
2023-04-10T00:43:36.707Z,96810.44
2023-04-10T00:46:04.473Z,96751.56
2023-04-10T00:48:31.442Z,96705.19
2023-04-10T00:50:57.899Z,96696.63
2023-04-10T00:53:24.410Z,96696.38
2023-04-10T00:55:51.559Z,96678.56
2023-04-10T00:58:18.434Z,96685.06
2023-04-10T01:00:46.083Z,96672.72
2023-04-10T01:03:13.447Z,96686.63
2023-04-10T01:05:44.763Z,96703.50
2023-04-10T01:08:30.034Z,96719.97
2023-04-10T01:10:58.070Z,96743.91
2023-04-10T01:13:28.187Z,96770.06
2023-04-10T01:16:13.734Z,96817.53
2023-04-10T01:18:49.305Z,96835.53
2023-04-10T01:21:17.757Z,96855.34
2023-04-10T01:23:47.518Z,96867.66
2023-04-10T01:26:17.367Z,96880.22
2023-04-10T01:28:47.310Z,96889.50
2023-04-10T01:31:17.260Z,96885.09
2023-04-10T01:33:46.897Z,96885.97
2023-04-10T01:36:18.900Z,96916.69
2023-04-10T01:38:46.255Z,96932.66
2023-04-10T01:41:13.566Z,96959.72
2023-04-10T01:43:40.758Z,96951.78
2023-04-10T01:46:07.903Z,96935.59
2023-04-10T01:48:34.610Z,96863.41
2023-04-10T01:51:04.578Z,96842.41
2023-04-10T01:53:31.823Z,96802.56
2023-04-10T01:55:58.677Z,96745.41
2023-04-10T01:58:25.314Z,96697.72
2023-04-10T02:00:51.738Z,96632.19
2023-04-10T02:03:18.422Z,96484.28
2023-04-10T02:06:08.508Z,96382.56
2023-04-10T02:08:36.691Z,96240.59
2023-04-10T02:11:18.052Z,96126.09
2023-04-10T02:13:45.956Z,96032.16
2023-04-10T02:16:14.673Z,95975.41
2023-04-10T02:18:41.751Z,95904.59
2023-04-10T02:21:08.468Z,95854.06
2023-04-10T02:23:35.776Z,95821.78
2023-04-10T02:26:12.331Z,95792.75
2023-04-10T02:28:39.997Z,95783.13
2023-04-10T02:31:07.346Z,95777.16
2023-04-10T02:33:33.989Z,95769.28
2023-04-10T02:36:01.344Z,95749.13
2023-04-10T02:38:27.858Z,95774.94
2023-04-10T02:40:54.555Z,95797.25
2023-04-10T02:43:21.082Z,95809.00
2023-04-10T02:45:47.828Z,95837.38
2023-04-10T02:48:14.785Z,95877.53
2023-04-10T02:50:46.630Z,95889.78
2023-04-10T02:53:19.089Z,95884.41
2023-04-10T02:55:46.024Z,95872.69
2023-04-10T02:58:14.894Z,95875.63
2023-04-10T03:00:41.878Z,95860.34
2023-04-10T03:03:08.626Z,95839.47
2023-04-10T03:05:35.266Z,95796.75
2023-04-10T03:08:02.015Z,95800.81
2023-04-10T03:10:29.307Z,95796.41
2023-04-10T03:12:56.082Z,95798.91
2023-04-10T03:15:22.654Z,95759.47
2023-04-10T03:17:49.201Z,95711.91
2023-04-10T03:20:16.182Z,95718.22
2023-04-10T03:22:42.909Z,95702.91
2023-04-10T03:25:09.604Z,95693.50
2023-04-10T03:27:36.671Z,95678.81
2023-04-10T03:30:03.313Z,95674.44
2023-04-10T03:32:31.335Z,95637.75
2023-04-10T03:34:58.780Z,95622.59
2023-04-10T03:37:27.846Z,95620.84
2023-04-10T03:39:54.497Z,95605.56
2023-04-10T03:42:21.665Z,95590.56
2023-04-10T03:44:50.873Z,95565.34
2023-04-10T03:47:17.572Z,95548.53
2023-04-10T03:49:44.414Z,95512.88
2023-04-10T03:52:11.106Z,95490.22
2023-04-10T03:54:37.663Z,95465.63
2023-04-10T03:57:04.148Z,95463.16
2023-04-10T03:59:38.238Z,95451.09
2023-04-10T04:02:06.936Z,95460.13
2023-04-10T04:04:33.661Z,95457.03
2023-04-10T04:07:00.495Z,95454.84
2023-04-10T04:09:26.904Z,95483.63
2023-04-10T04:11:53.509Z,95477.25
2023-04-10T04:14:20.005Z,95480.16
2023-04-10T04:16:46.697Z,95495.44
2023-04-10T04:19:13.132Z,95513.06
2023-04-10T04:21:39.735Z,95519.53
2023-04-10T04:24:06.277Z,95554.78
2023-04-10T04:26:33.612Z,95567.16
2023-04-10T04:29:00.295Z,95564.94
2023-04-10T04:31:32.575Z,95574.06
2023-04-10T04:34:02.351Z,95553.81
2023-04-10T04:36:29.233Z,95557.63
2023-04-10T04:38:56.045Z,95546.06
2023-04-10T04:41:22.692Z,95526.88
2023-04-10T04:43:50.062Z,95500.19
2023-04-10T04:46:16.668Z,95485.72
2023-04-10T04:48:43.217Z,95462.09
2023-04-10T04:51:10.262Z,95453.63
2023-04-10T04:53:40.175Z,95430.00
2023-04-10T04:56:07.151Z,95422.66
2023-04-10T04:58:36.463Z,95400.84
2023-04-10T05:01:03.194Z,95397.25
2023-04-10T05:03:30.357Z,95368.66
2023-04-10T05:05:57.011Z,95357.66
2023-04-10T05:08:23.640Z,95364.50
2023-04-10T05:10:50.474Z,95357.59
2023-04-10T05:13:17.710Z,95368.47
2023-04-10T05:15:44.905Z,95383.25
2023-04-10T05:18:11.714Z,95413.09
2023-04-10T05:20:44.448Z,95455.72
2023-04-10T05:23:11.459Z,95480.34
2023-04-10T05:25:38.265Z,95494.63
2023-04-10T05:28:04.844Z,95512.38
2023-04-10T05:30:31.589Z,95513.16
2023-04-10T05:32:58.347Z,95524.38
2023-04-10T05:35:25.011Z,95557.28
2023-04-10T05:37:51.552Z,95581.00
2023-04-10T05:40:18.483Z,95616.09
2023-04-10T05:42:44.944Z,95630.13
2023-04-10T05:45:12.414Z,95667.25
2023-04-10T05:47:39.236Z,95714.72
2023-04-10T05:50:06.250Z,95787.41
2023-04-10T05:52:33.171Z,95880.31
2023-04-10T05:54:59.762Z,95966.28
2023-04-10T05:57:29.698Z,96120.03
2023-04-10T05:59:56.297Z,96207.59
2023-04-10T06:02:23.169Z,96274.09
2023-04-10T06:04:50.883Z,96362.50
2023-04-10T06:07:17.612Z,96503.97
2023-04-10T06:09:44.147Z,96603.47
2023-04-10T06:12:10.704Z,96728.47
2023-04-10T06:14:37.328Z,96851.88
2023-04-10T06:17:03.955Z,96902.03
2023-04-10T06:19:30.819Z,96999.66
2023-04-10T06:21:57.466Z,97032.28
2023-04-10T06:24:24.075Z,97064.03
2023-04-10T06:26:56.989Z,97171.47
2023-04-10T06:29:24.282Z,97320.63
2023-04-10T06:31:52.812Z,97449.28
2023-04-10T06:34:19.357Z,97764.56
2023-04-10T06:36:46.032Z,98050.16
2023-04-10T06:39:12.543Z,98258.56
2023-04-10T06:41:39.003Z,98559.50
2023-04-10T06:44:05.569Z,98805.16
2023-04-10T06:46:32.236Z,98988.69
2023-04-10T06:48:58.889Z,99065.38
2023-04-10T06:51:26.106Z,99090.41
2023-04-10T06:53:52.735Z,99078.56
2023-04-10T06:56:19.527Z,99285.41
2023-04-10T06:58:46.117Z,99307.47
2023-04-10T07:01:12.485Z,99320.53
2023-04-10T07:03:39.183Z,99310.16
2023-04-10T07:06:09.437Z,99339.63
2023-04-10T07:08:36.828Z,99359.34
2023-04-10T07:11:03.438Z,99417.75
2023-04-10T07:13:30.147Z,99451.53
2023-04-10T07:15:56.809Z,99406.13
2023-04-10T07:18:23.497Z,99391.03
2023-04-10T07:20:51.481Z,99341.88
2023-04-10T07:23:18.118Z,99383.88
2023-04-10T07:25:44.731Z,99396.00
2023-04-10T07:28:11.727Z,99430.09
2023-04-10T07:30:38.332Z,99423.72
2023-04-10T07:33:07.140Z,99513.16
2023-04-10T07:35:33.916Z,99473.69
2023-04-10T07:38:01.551Z,99531.53
2023-04-10T07:40:28.213Z,99529.94
2023-04-10T07:42:54.700Z,99544.81
2023-04-10T07:45:23.346Z,99568.53
2023-04-10T07:47:49.956Z,99607.56
2023-04-10T07:50:16.561Z,99621.97
2023-04-10T07:52:43.422Z,99637.00
2023-04-10T07:55:10.098Z,99672.50
2023-04-10T07:57:36.665Z,99654.34
2023-04-10T08:00:03.739Z,99650.44
2023-04-10T08:02:30.573Z,99668.31
2023-04-10T08:04:57.251Z,99668.69
2023-04-10T08:07:23.815Z,99674.81
2023-04-10T08:09:50.507Z,99669.00
2023-04-10T08:12:18.289Z,99684.72
2023-04-10T08:14:45.426Z,99691.63
2023-04-10T08:17:14.948Z,99692.16
2023-04-10T08:19:42.275Z,99674.91
2023-04-10T08:22:09.019Z,99679.66
2023-04-10T08:24:35.517Z,99690.28
2023-04-10T08:27:02.282Z,99694.03
2023-04-10T08:29:28.905Z,99690.34
2023-04-10T08:31:56.623Z,99682.66
2023-04-10T08:34:24.595Z,99693.69
2023-04-10T08:36:54.404Z,99677.81
2023-04-10T08:39:21.573Z,99685.16
2023-04-10T08:41:48.104Z,99675.97
2023-04-10T08:44:14.862Z,99682.91
2023-04-10T08:46:44.995Z,99674.69
2023-04-10T08:49:17.249Z,99683.63
2023-04-10T08:51:49.208Z,99683.69
2023-04-10T08:54:22.090Z,99683.47
2023-04-10T08:56:50.846Z,99691.66
2023-04-10T08:59:17.566Z,99669.66
2023-04-10T09:01:44.391Z,99687.09
2023-04-10T09:04:12.236Z,99677.22
2023-04-10T09:06:38.904Z,99675.72
2023-04-10T09:09:08.515Z,99668.78
2023-04-10T09:11:53.077Z,99652.25
2023-04-10T09:14:23.476Z,99669.28
2023-04-10T09:16:50.675Z,99647.00
2023-04-10T09:19:30.690Z,99647.84
2023-04-10T09:21:57.408Z,99669.22
2023-04-10T09:24:25.608Z,99637.41
2023-04-10T09:26:52.454Z,99646.06
2023-04-10T09:29:21.946Z,99650.38
2023-04-10T09:31:48.528Z,99625.34
2023-04-10T09:34:23.847Z,99633.53
2023-04-10T09:36:53.323Z,99648.09
2023-04-10T09:39:19.886Z,99646.94
2023-04-10T09:41:50.514Z,99621.75
2023-04-10T09:44:19.030Z,99626.78
2023-04-10T09:46:46.792Z,99605.63
2023-04-10T09:49:13.250Z,99615.31
2023-04-10T09:51:39.955Z,99604.09
2023-04-10T09:54:07.013Z,99605.44
2023-04-10T09:56:36.986Z,99598.41
2023-04-10T09:59:04.886Z,99597.72
2023-04-10T10:01:35.153Z,99593.06
2023-04-10T10:04:07.737Z,99593.03
2023-04-10T10:06:37.671Z,99585.94
2023-04-10T10:09:05.542Z,99584.53
2023-04-10T10:11:35.837Z,99568.44
2023-04-10T10:14:15.793Z,99559.47
2023-04-10T10:16:42.492Z,99552.56
2023-04-10T10:19:21.284Z,99571.63
2023-04-10T10:21:48.189Z,99567.63
2023-04-10T10:24:16.049Z,99567.00
2023-04-10T10:26:43.480Z,99561.78
2023-04-10T10:29:11.273Z,99554.88
2023-04-10T10:31:38.164Z,99537.00
2023-04-10T10:34:07.485Z,99526.25
2023-04-10T10:36:34.669Z,99538.88
2023-04-10T10:39:04.231Z,99528.38
2023-04-10T10:41:49.462Z,99512.00
2023-04-10T10:44:23.862Z,99518.84
2023-04-10T10:47:04.831Z,99498.78
2023-04-10T10:49:52.519Z,99503.13
2023-04-10T10:52:37.312Z,99495.47
2023-04-10T10:55:22.317Z,99489.56
2023-04-10T10:57:50.555Z,99482.50
2023-04-10T11:00:16.936Z,99476.66
2023-04-10T11:02:43.678Z,99471.47
2023-04-10T11:05:10.281Z,99481.66
2023-04-10T11:07:55.985Z,99474.13
2023-04-10T11:10:42.459Z,99478.16
2023-04-10T11:13:16.265Z,99480.63
2023-04-10T11:15:43.391Z,99467.91
2023-04-10T11:18:09.859Z,99477.50
2023-04-10T11:20:57.520Z,99475.06
2023-04-10T11:23:24.480Z,99470.59
2023-04-10T11:25:52.649Z,99455.03
2023-04-10T11:28:34.305Z,99450.53
2023-04-10T11:31:16.167Z,99445.88
2023-04-10T11:33:42.847Z,99431.75
2023-04-10T11:36:09.682Z,99437.09
2023-04-10T11:38:36.452Z,99431.56
2023-04-10T11:41:04.964Z,99439.94
2023-04-10T11:43:34.096Z,99431.84
2023-04-10T11:46:01.746Z,99417.66
2023-04-10T11:48:29.447Z,99410.16
2023-04-10T11:50:56.089Z,99400.66
2023-04-10T11:53:22.814Z,99399.31
2023-04-10T11:55:49.755Z,99386.66
2023-04-10T11:58:24.240Z,99379.41
2023-04-10T12:01:01.615Z,99380.13
2023-04-10T12:03:49.357Z,99375.38
2023-04-10T12:06:16.470Z,99366.25
2023-04-10T12:08:46.082Z,99366.88
2023-04-10T12:11:13.213Z,99368.47
2023-04-10T12:13:40.407Z,99348.47
2023-04-10T12:16:08.266Z,99349.19
2023-04-10T12:18:34.985Z,99345.53
2023-04-10T12:21:01.820Z,99336.00
2023-04-10T12:23:28.940Z,99333.03
2023-04-10T12:26:13.209Z,99320.78
2023-04-10T12:28:42.290Z,99317.00
2023-04-10T12:31:09.395Z,99313.84
2023-04-10T12:33:36.252Z,99311.69
2023-04-10T12:36:02.797Z,99297.06
2023-04-10T12:38:36.653Z,99318.69
2023-04-10T12:41:04.160Z,99304.13
2023-04-10T12:43:34.774Z,99299.09
2023-04-10T12:46:01.859Z,99304.91
2023-04-10T12:48:28.536Z,99302.22
2023-04-10T12:50:55.414Z,99283.00
2023-04-10T12:53:22.140Z,99289.88
2023-04-10T12:56:05.275Z,99278.19
2023-04-10T12:58:32.109Z,99287.63
2023-04-10T13:01:06.595Z,99264.91
2023-04-10T13:03:37.927Z,99263.03
2023-04-10T13:06:08.932Z,99251.34
2023-04-10T13:08:35.678Z,99253.84
2023-04-10T13:11:03.656Z,99266.44
2023-04-10T13:13:31.589Z,99260.38
2023-04-10T13:15:59.141Z,99264.53
2023-04-10T13:18:25.999Z,99252.75
2023-04-10T13:20:52.710Z,99253.47
2023-04-10T13:23:19.173Z,99250.97
2023-04-10T13:25:45.962Z,99241.00
2023-04-10T13:28:12.582Z,99250.38
2023-04-10T13:30:40.682Z,99255.88
2023-04-10T13:33:08.007Z,99269.22
2023-04-10T13:35:34.692Z,99258.75
2023-04-10T13:38:01.402Z,99253.63
2023-04-10T13:40:28.633Z,99260.66
2023-04-10T13:42:55.240Z,99252.31
2023-04-10T13:45:23.606Z,99254.31
2023-04-10T13:47:50.906Z,99250.50
2023-04-10T13:50:17.424Z,99248.63
2023-04-10T13:52:44.390Z,99233.19
2023-04-10T13:55:11.357Z,99231.06
2023-04-10T13:57:38.427Z,99214.31
2023-04-10T14:00:05.575Z,99228.53
2023-04-10T14:02:32.436Z,99231.88
2023-04-10T14:04:59.102Z,99235.41
2023-04-10T14:07:25.617Z,99220.63
2023-04-10T14:09:52.226Z,99227.06
2023-04-10T14:12:19.339Z,99216.94
2023-04-10T14:14:46.174Z,99219.84
2023-04-10T14:17:12.776Z,99213.81
2023-04-10T14:19:39.920Z,99203.13
2023-04-10T14:22:06.392Z,99186.66
2023-04-10T14:24:33.086Z,99190.81
2023-04-10T14:27:01.509Z,99182.97
2023-04-10T14:29:37.271Z,99187.34
2023-04-10T14:32:07.445Z,99175.47
2023-04-10T14:34:34.180Z,99164.91
2023-04-10T14:37:00.906Z,99168.75
2023-04-10T14:39:27.354Z,99149.16
2023-04-10T14:41:53.983Z,99173.00
2023-04-10T14:44:20.480Z,99168.81
2023-04-10T14:46:47.457Z,99166.00
2023-04-10T14:49:15.058Z,99152.31
2023-04-10T14:51:45.090Z,99140.81
2023-04-10T14:54:12.165Z,99156.56
2023-04-10T14:56:38.882Z,99132.03
2023-04-10T14:59:06.014Z,99123.25
2023-04-10T15:01:32.617Z,99135.13
2023-04-10T15:03:59.402Z,99127.84
2023-04-10T15:06:27.969Z,99127.88
2023-04-10T15:08:55.540Z,99110.38
2023-04-10T15:11:22.642Z,99109.00
2023-04-10T15:13:49.365Z,99113.94
2023-04-10T15:16:16.336Z,99108.75
2023-04-10T15:18:43.284Z,99127.75
2023-04-10T15:21:09.871Z,99097.13
2023-04-10T15:23:36.439Z,99111.81
2023-04-10T15:26:03.501Z,99105.97
2023-04-10T15:28:30.316Z,99106.38
2023-04-10T15:30:57.803Z,99084.91
2023-04-10T15:33:24.545Z,99086.19
2023-04-10T15:35:51.161Z,99087.25
2023-04-10T15:38:17.829Z,99078.94
2023-04-10T15:40:44.688Z,99075.97
2023-04-10T15:43:11.445Z,99071.81
2023-04-10T15:45:38.012Z,99060.47
2023-04-10T15:48:04.721Z,99052.81
2023-04-10T15:50:31.490Z,99047.72
2023-04-10T15:52:58.051Z,99062.06
2023-04-10T15:55:25.066Z,99020.13
2023-04-10T15:57:51.615Z,99038.09
2023-04-10T16:00:18.329Z,99035.69
2023-04-10T16:02:45.332Z,99012.16
2023-04-10T16:05:12.435Z,99010.88
2023-04-10T16:07:40.687Z,99006.25
2023-04-10T16:10:09.331Z,98997.09
2023-04-10T16:12:36.085Z,99003.00
2023-04-10T16:15:04.645Z,98996.59
2023-04-10T16:17:31.900Z,98980.81
2023-04-10T16:20:04.488Z,98983.13
2023-04-10T16:22:34.264Z,98982.88
2023-04-10T16:25:00.889Z,98966.91
2023-04-10T16:27:27.976Z,98967.97
2023-04-10T16:29:54.839Z,98972.00
2023-04-10T16:32:21.722Z,98956.38
2023-04-10T16:34:48.198Z,98952.53
2023-04-10T16:37:14.775Z,98953.72
2023-04-10T16:39:41.265Z,98949.06
2023-04-10T16:42:07.772Z,98948.72
2023-04-10T16:44:34.274Z,98946.38
2023-04-10T16:47:00.998Z,98947.19
2023-04-10T16:49:27.587Z,98939.19
2023-04-10T16:51:54.116Z,98936.38
2023-04-10T16:54:20.560Z,98935.91
2023-04-10T16:56:47.193Z,98936.31
2023-04-10T16:59:13.834Z,98934.88
2023-04-10T17:01:40.771Z,98925.34
2023-04-10T17:04:08.298Z,98924.81
2023-04-10T17:06:35.362Z,98924.41
2023-04-10T17:09:02.104Z,98906.38
2023-04-10T17:11:28.776Z,98903.00
2023-04-10T17:13:55.363Z,98902.56
2023-04-10T17:16:22.024Z,98891.56
2023-04-10T17:18:48.591Z,98888.47
2023-04-10T17:21:15.208Z,98891.19
2023-04-10T17:23:41.853Z,98871.69
2023-04-10T17:26:12.764Z,98879.38
2023-04-10T17:28:39.355Z,98878.19
2023-04-10T17:31:06.853Z,98886.19
2023-04-10T17:33:33.271Z,98880.72
2023-04-10T17:35:59.782Z,98884.41
2023-04-10T17:38:26.447Z,98874.56
2023-04-10T17:40:53.840Z,98876.28
2023-04-10T17:43:20.492Z,98866.56
2023-04-10T17:45:47.006Z,98868.28
2023-04-10T17:48:13.717Z,98859.63
2023-04-10T17:50:40.429Z,98864.97
2023-04-10T17:53:06.915Z,98850.50
2023-04-10T17:55:38.183Z,98852.50
2023-04-10T17:58:04.692Z,98855.03
2023-04-10T18:00:31.709Z,98852.34
2023-04-10T18:03:01.144Z,98854.38
2023-04-10T18:05:28.655Z,98867.88
2023-04-10T18:07:55.844Z,98868.88
2023-04-10T18:10:22.655Z,98848.75
2023-04-10T18:12:49.290Z,98850.44
2023-04-10T18:15:15.862Z,98843.25
2023-04-10T18:17:42.629Z,98850.09
2023-04-10T18:20:09.757Z,98844.63
2023-04-10T18:22:36.447Z,98841.31
2023-04-10T18:25:03.244Z,98850.94
2023-04-10T18:27:31.767Z,98858.78
2023-04-10T18:29:58.736Z,98842.47
2023-04-10T18:32:25.381Z,98831.13
2023-04-10T18:34:51.997Z,98839.50
2023-04-10T18:37:18.584Z,98829.50
2023-04-10T18:39:45.042Z,98816.84
2023-04-10T18:42:11.587Z,98817.53
2023-04-10T18:44:38.292Z,98815.88
2023-04-10T18:47:05.482Z,98809.19
2023-04-10T18:49:32.077Z,98800.91
2023-04-10T18:51:59.159Z,98798.88
2023-04-10T18:54:28.713Z,98791.91
2023-04-10T18:56:56.762Z,98777.47
2023-04-10T18:59:23.308Z,98768.44
2023-04-10T19:01:50.121Z,98765.63
2023-04-10T19:04:17.021Z,98763.97
2023-04-10T19:06:46.385Z,98767.66
2023-04-10T19:09:13.671Z,98775.31
2023-04-10T19:11:40.648Z,98774.47
2023-04-10T19:14:07.623Z,98736.59
2023-04-10T19:16:34.459Z,98757.34
2023-04-10T19:19:04.385Z,98762.16
2023-04-10T19:21:31.723Z,98750.34
2023-04-10T19:23:58.610Z,98762.69
2023-04-10T19:26:25.206Z,98755.34
2023-04-10T19:28:51.719Z,98744.69
2023-04-10T19:31:18.409Z,98734.38
2023-04-10T19:33:44.951Z,98754.38
2023-04-10T19:36:11.522Z,98735.75
2023-04-10T19:38:38.193Z,98746.38
2023-04-10T19:41:13.215Z,98757.34
2023-04-10T19:43:40.096Z,98745.38
2023-04-10T19:46:08.175Z,98738.41
2023-04-10T19:48:34.861Z,98727.25
2023-04-10T19:51:05.653Z,98706.13
2023-04-10T19:53:32.332Z,98724.06
2023-04-10T19:55:58.911Z,98720.94
2023-04-10T20:01:02.107Z,98704.97
2023-04-10T20:03:28.722Z,98713.78
2023-04-10T20:05:56.149Z,98698.50
2023-04-10T20:08:22.941Z,98708.97
2023-04-10T20:10:49.582Z,98694.81
2023-04-10T20:13:16.095Z,98679.88
2023-04-10T20:15:43.435Z,98680.84
2023-04-10T20:18:09.918Z,98683.69
2023-04-10T20:20:36.422Z,98669.75
2023-04-10T20:23:02.972Z,98671.56
2023-04-10T20:25:29.539Z,98681.53
2023-04-10T20:27:55.990Z,98701.19
2023-04-10T20:30:22.959Z,98669.59
2023-04-10T20:32:49.433Z,98678.91
2023-04-10T20:35:16.462Z,98671.94
2023-04-10T20:37:43.050Z,98662.78
2023-04-10T20:40:09.798Z,98666.09
2023-04-10T20:42:36.475Z,98657.66
2023-04-10T20:45:03.593Z,98648.84
2023-04-10T20:47:30.269Z,98634.06
2023-04-10T20:49:56.912Z,98637.38
2023-04-10T20:52:23.388Z,98656.34
2023-04-10T20:54:50.021Z,98635.41
2023-04-10T20:57:16.653Z,98630.09
2023-04-10T20:59:43.155Z,98624.75
2023-04-10T21:02:09.797Z,98624.09
2023-04-10T21:04:36.564Z,98614.84
2023-04-10T21:07:03.028Z,98613.16
2023-04-10T21:09:29.559Z,98622.44
2023-04-10T21:11:56.001Z,98613.50
2023-04-10T21:14:22.569Z,98626.63
2023-04-10T21:16:49.062Z,98626.47
2023-04-10T21:19:15.663Z,98638.78
2023-04-10T21:21:42.113Z,98613.81
2023-04-10T21:24:08.714Z,98627.44
2023-04-10T21:26:35.448Z,98623.47
2023-04-10T21:29:01.908Z,98637.75
2023-04-10T21:31:28.715Z,98619.34
2023-04-10T21:33:55.413Z,98621.16
2023-04-10T21:36:22.210Z,98612.88
2023-04-10T21:38:48.678Z,98586.28
2023-04-10T21:41:15.558Z,98598.25
2023-04-10T21:43:43.241Z,98582.81
2023-04-10T21:46:09.904Z,98579.31
2023-04-10T21:48:36.535Z,98573.03
2023-04-10T21:51:03.508Z,98553.44
2023-04-10T21:53:30.031Z,98576.34
2023-04-10T21:55:56.784Z,98572.03
2023-04-10T21:58:23.344Z,98573.22
2023-04-10T22:00:53.276Z,98560.56
2023-04-10T22:03:20.615Z,98570.38
2023-04-10T22:05:48.898Z,98571.22
2023-04-10T22:08:16.090Z,98561.75
2023-04-10T22:10:45.759Z,98561.09
2023-04-10T22:13:19.798Z,98540.31
2023-04-10T22:15:54.387Z,98554.09
2023-04-10T22:18:20.982Z,98544.13
2023-04-10T22:20:47.530Z,98528.88
2023-04-10T22:23:14.011Z,98511.28
2023-04-10T22:25:40.598Z,98506.28
2023-04-10T22:28:07.144Z,98501.97
2023-04-10T22:30:34.426Z,98493.03
2023-04-10T22:33:01.222Z,98488.69
2023-04-10T22:35:27.897Z,98488.69
2023-04-10T22:37:54.427Z,98481.41
2023-04-10T22:40:20.875Z,98489.38
2023-04-10T22:42:48.596Z,98495.69
2023-04-10T22:45:15.801Z,98475.09
2023-04-10T22:47:43.423Z,98478.22
2023-04-10T22:50:10.202Z,98472.78
2023-04-10T22:52:37.705Z,98475.75
2023-04-10T22:55:06.992Z,98462.63
2023-04-10T22:57:33.967Z,98449.03
2023-04-10T23:00:00.926Z,98447.22
2023-04-10T23:02:27.866Z,98459.50
2023-04-10T23:04:54.590Z,98452.88
2023-04-10T23:07:21.073Z,98462.31
2023-04-10T23:09:47.572Z,98474.75
2023-04-10T23:12:14.654Z,98459.84
2023-04-10T23:14:41.184Z,98455.22
2023-04-10T23:17:07.922Z,98477.09
2023-04-10T23:19:34.355Z,98470.16
2023-04-10T23:22:00.930Z,98461.53
2023-04-10T23:24:27.596Z,98467.50
2023-04-10T23:26:54.132Z,98457.84
2023-04-10T23:29:20.649Z,98444.25
2023-04-10T23:31:47.164Z,98463.00
2023-04-10T23:34:13.580Z,98473.44
2023-04-10T23:36:40.138Z,98484.31
2023-04-10T23:39:06.562Z,98471.41
2023-04-10T23:41:33.836Z,98477.97
2023-04-10T23:44:00.485Z,98474.97
2023-04-10T23:46:27.149Z,98484.16
2023-04-10T23:48:54.891Z,98465.56
2023-04-10T23:51:21.695Z,98442.00
2023-04-10T23:53:48.458Z,98441.31
2023-04-10T23:56:15.096Z,98444.28
2023-04-10T23:58:41.873Z,98433.63
